sensor_id;sensor_type;location;lat;lon;timestamp;P1;durP1;ratioP1;P2;durP2;ratioP2
20657;SDS011;10488;50.846;4.078;2023-05-13T00:00:10;16.65;;;13.93;;
20657;SDS011;10488;50.846;4.078;2023-05-13T00:02:36;19.83;;;14.65;;
20657;SDS011;10488;50.846;4.078;2023-05-13T00:05:02;16.55;;;14.27;;
20657;SDS011;10488;50.846;4.078;2023-05-13T00:07:27;20.65;;;14.52;;
20657;SDS011;10488;50.846;4.078;2023-05-13T00:09:53;16.70;;;13.68;;
20657;SDS011;10488;50.846;4.078;2023-05-13T00:12:19;17.63;;;13.55;;
20657;SDS011;10488;50.846;4.078;2023-05-13T00:14:44;14.88;;;13.20;;
20657;SDS011;10488;50.846;4.078;2023-05-13T00:17:10;18.85;;;14.52;;
20657;SDS011;10488;50.846;4.078;2023-05-13T00:19:36;17.70;;;13.57;;
20657;SDS011;10488;50.846;4.078;2023-05-13T00:22:01;23.40;;;12.98;;
20657;SDS011;10488;50.846;4.078;2023-05-13T00:24:27;15.20;;;12.65;;
20657;SDS011;10488;50.846;4.078;2023-05-13T00:26:53;17.13;;;12.50;;
20657;SDS011;10488;50.846;4.078;2023-05-13T00:29:19;17.13;;;11.65;;
20657;SDS011;10488;50.846;4.078;2023-05-13T00:31:45;15.32;;;11.80;;
20657;SDS011;10488;50.846;4.078;2023-05-13T00:34:11;15.43;;;11.73;;
20657;SDS011;10488;50.846;4.078;2023-05-13T00:36:37;14.48;;;11.90;;
20657;SDS011;10488;50.846;4.078;2023-05-13T00:39:02;14.07;;;12.15;;
20657;SDS011;10488;50.846;4.078;2023-05-13T00:41:28;15.00;;;10.98;;
20657;SDS011;10488;50.846;4.078;2023-05-13T00:43:54;16.73;;;11.75;;
20657;SDS011;10488;50.846;4.078;2023-05-13T00:46:23;17.15;;;12.15;;
20657;SDS011;10488;50.846;4.078;2023-05-13T00:48:49;13.02;;;11.73;;
20657;SDS011;10488;50.846;4.078;2023-05-13T00:51:15;15.48;;;13.30;;
20657;SDS011;10488;50.846;4.078;2023-05-13T00:53:42;16.95;;;12.65;;
20657;SDS011;10488;50.846;4.078;2023-05-13T00:56:08;16.48;;;13.52;;
20657;SDS011;10488;50.846;4.078;2023-05-13T00:58:33;16.70;;;13.02;;
20657;SDS011;10488;50.846;4.078;2023-05-13T01:07:04;20.15;;;14.82;;
20657;SDS011;10488;50.846;4.078;2023-05-13T01:09:59;16.27;;;14.23;;
20657;SDS011;10488;50.846;4.078;2023-05-13T01:12:39;17.58;;;15.57;;
20657;SDS011;10488;50.846;4.078;2023-05-13T01:15:08;19.98;;;17.10;;
20657;SDS011;10488;50.846;4.078;2023-05-13T01:20:40;31.67;;;20.60;;
20657;SDS011;10488;50.846;4.078;2023-05-13T01:23:07;28.27;;;19.27;;
20657;SDS011;10488;50.846;4.078;2023-05-13T01:25:37;30.35;;;22.55;;
20657;SDS011;10488;50.846;4.078;2023-05-13T01:28:04;32.53;;;22.35;;
20657;SDS011;10488;50.846;4.078;2023-05-13T01:30:30;37.47;;;26.10;;
20657;SDS011;10488;50.846;4.078;2023-05-13T01:32:56;36.17;;;25.45;;
20657;SDS011;10488;50.846;4.078;2023-05-13T01:35:23;39.83;;;27.02;;
20657;SDS011;10488;50.846;4.078;2023-05-13T01:37:50;40.92;;;26.25;;
20657;SDS011;10488;50.846;4.078;2023-05-13T01:40:17;37.88;;;26.67;;
20657;SDS011;10488;50.846;4.078;2023-05-13T01:42:42;43.05;;;27.75;;
20657;SDS011;10488;50.846;4.078;2023-05-13T01:45:08;40.47;;;28.95;;
20657;SDS011;10488;50.846;4.078;2023-05-13T01:47:34;41.55;;;29.98;;
20657;SDS011;10488;50.846;4.078;2023-05-13T01:50:00;46.83;;;32.60;;
20657;SDS011;10488;50.846;4.078;2023-05-13T01:52:26;50.83;;;33.25;;
20657;SDS011;10488;50.846;4.078;2023-05-13T01:54:51;49.08;;;35.88;;
20657;SDS011;10488;50.846;4.078;2023-05-13T01:57:17;44.83;;;33.58;;
20657;SDS011;10488;50.846;4.078;2023-05-13T01:59:42;50.72;;;35.75;;
20657;SDS011;10488;50.846;4.078;2023-05-13T02:02:08;54.78;;;37.70;;
20657;SDS011;10488;50.846;4.078;2023-05-13T02:04:34;53.97;;;39.00;;
20657;SDS011;10488;50.846;4.078;2023-05-13T02:06:59;63.03;;;41.90;;
20657;SDS011;10488;50.846;4.078;2023-05-13T02:09:25;69.78;;;45.08;;
20657;SDS011;10488;50.846;4.078;2023-05-13T02:11:51;64.97;;;42.33;;
20657;SDS011;10488;50.846;4.078;2023-05-13T02:14:16;65.75;;;43.05;;
20657;SDS011;10488;50.846;4.078;2023-05-13T02:16:42;75.07;;;50.63;;
20657;SDS011;10488;50.846;4.078;2023-05-13T02:19:08;75.25;;;45.72;;
20657;SDS011;10488;50.846;4.078;2023-05-13T02:21:33;69.15;;;45.85;;
20657;SDS011;10488;50.846;4.078;2023-05-13T02:23:59;76.45;;;49.25;;
20657;SDS011;10488;50.846;4.078;2023-05-13T02:26:25;68.13;;;46.47;;
20657;SDS011;10488;50.846;4.078;2023-05-13T02:28:51;73.40;;;46.83;;
20657;SDS011;10488;50.846;4.078;2023-05-13T02:31:17;79.05;;;50.53;;
20657;SDS011;10488;50.846;4.078;2023-05-13T02:33:42;81.05;;;48.42;;
20657;SDS011;10488;50.846;4.078;2023-05-13T02:36:08;68.68;;;44.78;;
20657;SDS011;10488;50.846;4.078;2023-05-13T02:38:34;69.78;;;47.22;;
20657;SDS011;10488;50.846;4.078;2023-05-13T02:41:00;84.07;;;55.00;;
20657;SDS011;10488;50.846;4.078;2023-05-13T02:43:25;82.65;;;50.85;;
20657;SDS011;10488;50.846;4.078;2023-05-13T02:45:52;69.45;;;48.67;;
20657;SDS011;10488;50.846;4.078;2023-05-13T02:48:18;68.90;;;48.13;;
20657;SDS011;10488;50.846;4.078;2023-05-13T02:50:44;77.45;;;49.85;;
20657;SDS011;10488;50.846;4.078;2023-05-13T02:53:10;76.15;;;47.00;;
20657;SDS011;10488;50.846;4.078;2023-05-13T02:55:35;71.25;;;47.55;;
20657;SDS011;10488;50.846;4.078;2023-05-13T02:58:01;68.25;;;45.58;;
20657;SDS011;10488;50.846;4.078;2023-05-13T03:00:27;87.35;;;54.30;;
20657;SDS011;10488;50.846;4.078;2023-05-13T03:02:52;94.00;;;56.45;;
20657;SDS011;10488;50.846;4.078;2023-05-13T03:05:18;79.72;;;52.10;;
20657;SDS011;10488;50.846;4.078;2023-05-13T03:07:44;82.80;;;54.25;;
20657;SDS011;10488;50.846;4.078;2023-05-13T03:10:10;93.75;;;55.30;;
20657;SDS011;10488;50.846;4.078;2023-05-13T03:12:35;84.60;;;55.40;;
20657;SDS011;10488;50.846;4.078;2023-05-13T03:15:01;89.35;;;55.28;;
20657;SDS011;10488;50.846;4.078;2023-05-13T03:17:28;97.72;;;59.08;;
20657;SDS011;10488;50.846;4.078;2023-05-13T03:19:55;100.43;;;59.05;;
20657;SDS011;10488;50.846;4.078;2023-05-13T03:22:21;88.68;;;54.67;;
20657;SDS011;10488;50.846;4.078;2023-05-13T03:24:47;88.20;;;54.10;;
20657;SDS011;10488;50.846;4.078;2023-05-13T03:27:13;87.32;;;54.53;;
20657;SDS011;10488;50.846;4.078;2023-05-13T03:29:38;85.47;;;54.83;;
20657;SDS011;10488;50.846;4.078;2023-05-13T03:32:04;91.43;;;55.20;;
20657;SDS011;10488;50.846;4.078;2023-05-13T03:34:30;85.40;;;52.88;;
20657;SDS011;10488;50.846;4.078;2023-05-13T03:36:57;84.25;;;52.53;;
20657;SDS011;10488;50.846;4.078;2023-05-13T03:39:22;86.38;;;53.83;;
20657;SDS011;10488;50.846;4.078;2023-05-13T03:41:50;87.18;;;53.80;;
20657;SDS011;10488;50.846;4.078;2023-05-13T03:44:16;92.15;;;55.67;;
20657;SDS011;10488;50.846;4.078;2023-05-13T03:46:42;77.60;;;53.72;;
20657;SDS011;10488;50.846;4.078;2023-05-13T03:49:08;84.35;;;55.42;;
20657;SDS011;10488;50.846;4.078;2023-05-13T03:51:33;82.80;;;52.80;;
20657;SDS011;10488;50.846;4.078;2023-05-13T03:53:59;79.80;;;54.05;;
20657;SDS011;10488;50.846;4.078;2023-05-13T03:56:26;79.93;;;53.17;;
20657;SDS011;10488;50.846;4.078;2023-05-13T03:58:52;92.72;;;53.75;;
20657;SDS011;10488;50.846;4.078;2023-05-13T04:01:18;86.75;;;54.22;;
20657;SDS011;10488;50.846;4.078;2023-05-13T04:03:44;91.57;;;54.45;;
20657;SDS011;10488;50.846;4.078;2023-05-13T04:06:10;89.95;;;54.10;;
20657;SDS011;10488;50.846;4.078;2023-05-13T04:08:38;88.93;;;53.40;;
20657;SDS011;10488;50.846;4.078;2023-05-13T04:11:03;84.90;;;53.10;;
20657;SDS011;10488;50.846;4.078;2023-05-13T04:13:31;92.78;;;53.72;;
20657;SDS011;10488;50.846;4.078;2023-05-13T04:16:01;79.07;;;51.40;;
20657;SDS011;10488;50.846;4.078;2023-05-13T04:18:30;79.75;;;52.15;;
20657;SDS011;10488;50.846;4.078;2023-05-13T04:20:57;78.18;;;50.75;;
20657;SDS011;10488;50.846;4.078;2023-05-13T04:23:23;83.05;;;50.75;;
20657;SDS011;10488;50.846;4.078;2023-05-13T04:25:49;79.60;;;49.67;;
20657;SDS011;10488;50.846;4.078;2023-05-13T04:28:16;85.07;;;50.53;;
20657;SDS011;10488;50.846;4.078;2023-05-13T04:30:42;77.80;;;51.38;;
20657;SDS011;10488;50.846;4.078;2023-05-13T04:33:08;78.85;;;51.60;;
20657;SDS011;10488;50.846;4.078;2023-05-13T04:35:33;91.28;;;55.35;;
20657;SDS011;10488;50.846;4.078;2023-05-13T04:37:59;83.60;;;50.67;;
20657;SDS011;10488;50.846;4.078;2023-05-13T04:40:25;78.78;;;49.13;;
20657;SDS011;10488;50.846;4.078;2023-05-13T04:42:51;73.13;;;48.95;;
20657;SDS011;10488;50.846;4.078;2023-05-13T04:45:19;71.40;;;49.13;;
20657;SDS011;10488;50.846;4.078;2023-05-13T04:47:45;79.97;;;50.35;;
20657;SDS011;10488;50.846;4.078;2023-05-13T04:50:11;77.22;;;49.58;;
20657;SDS011;10488;50.846;4.078;2023-05-13T04:52:37;65.35;;;47.30;;
20657;SDS011;10488;50.846;4.078;2023-05-13T04:55:02;74.22;;;47.95;;
20657;SDS011;10488;50.846;4.078;2023-05-13T04:57:28;67.50;;;45.97;;
20657;SDS011;10488;50.846;4.078;2023-05-13T04:59:54;67.32;;;46.60;;
20657;SDS011;10488;50.846;4.078;2023-05-13T05:02:20;63.80;;;43.88;;
20657;SDS011;10488;50.846;4.078;2023-05-13T05:04:46;65.78;;;44.20;;
20657;SDS011;10488;50.846;4.078;2023-05-13T05:07:13;58.63;;;40.90;;
20657;SDS011;10488;50.846;4.078;2023-05-13T05:09:38;53.08;;;39.13;;
20657;SDS011;10488;50.846;4.078;2023-05-13T05:12:04;56.17;;;39.00;;
20657;SDS011;10488;50.846;4.078;2023-05-13T05:14:30;57.92;;;38.92;;
20657;SDS011;10488;50.846;4.078;2023-05-13T05:16:56;56.28;;;39.80;;
20657;SDS011;10488;50.846;4.078;2023-05-13T05:19:21;46.45;;;36.08;;
20657;SDS011;10488;50.846;4.078;2023-05-13T05:21:48;45.38;;;34.47;;
20657;SDS011;10488;50.846;4.078;2023-05-13T05:24:15;47.83;;;34.75;;
20657;SDS011;10488;50.846;4.078;2023-05-13T05:26:40;45.78;;;34.63;;
20657;SDS011;10488;50.846;4.078;2023-05-13T05:29:06;53.30;;;32.13;;
20657;SDS011;10488;50.846;4.078;2023-05-13T05:31:32;41.78;;;28.70;;
20657;SDS011;10488;50.846;4.078;2023-05-13T05:33:57;38.13;;;28.10;;
20657;SDS011;10488;50.846;4.078;2023-05-13T05:36:24;35.40;;;27.73;;
20657;SDS011;10488;50.846;4.078;2023-05-13T05:38:50;33.53;;;24.50;;
20657;SDS011;10488;50.846;4.078;2023-05-13T05:41:16;26.45;;;20.77;;
20657;SDS011;10488;50.846;4.078;2023-05-13T05:43:41;22.88;;;18.02;;
20657;SDS011;10488;50.846;4.078;2023-05-13T05:46:07;24.73;;;18.58;;
20657;SDS011;10488;50.846;4.078;2023-05-13T05:48:33;21.13;;;16.35;;
20657;SDS011;10488;50.846;4.078;2023-05-13T05:50:58;19.60;;;16.15;;
20657;SDS011;10488;50.846;4.078;2023-05-13T05:53:24;20.55;;;16.88;;
20657;SDS011;10488;50.846;4.078;2023-05-13T05:55:50;19.50;;;14.75;;
20657;SDS011;10488;50.846;4.078;2023-05-13T05:58:16;17.70;;;14.70;;
20657;SDS011;10488;50.846;4.078;2023-05-13T06:00:41;16.92;;;13.35;;
20657;SDS011;10488;50.846;4.078;2023-05-13T06:03:07;14.80;;;13.20;;
20657;SDS011;10488;50.846;4.078;2023-05-13T06:05:33;20.02;;;12.30;;
20657;SDS011;10488;50.846;4.078;2023-05-13T06:07:59;13.75;;;12.07;;
20657;SDS011;10488;50.846;4.078;2023-05-13T06:10:25;14.45;;;12.23;;
20657;SDS011;10488;50.846;4.078;2023-05-13T06:12:50;14.25;;;11.63;;
20657;SDS011;10488;50.846;4.078;2023-05-13T06:15:16;16.00;;;11.65;;
20657;SDS011;10488;50.846;4.078;2023-05-13T06:17:42;13.32;;;10.50;;
20657;SDS011;10488;50.846;4.078;2023-05-13T06:20:07;12.00;;;10.02;;
20657;SDS011;10488;50.846;4.078;2023-05-13T06:22:33;13.05;;;10.70;;
20657;SDS011;10488;50.846;4.078;2023-05-13T06:24:59;14.63;;;9.77;;
20657;SDS011;10488;50.846;4.078;2023-05-13T06:27:25;10.07;;;9.02;;
20657;SDS011;10488;50.846;4.078;2023-05-13T06:29:51;14.40;;;8.82;;
20657;SDS011;10488;50.846;4.078;2023-05-13T06:32:16;11.10;;;8.40;;
20657;SDS011;10488;50.846;4.078;2023-05-13T06:34:42;10.65;;;8.50;;
20657;SDS011;10488;50.846;4.078;2023-05-13T06:37:10;12.20;;;8.00;;
20657;SDS011;10488;50.846;4.078;2023-05-13T06:39:36;15.98;;;7.63;;
20657;SDS011;10488;50.846;4.078;2023-05-13T06:42:02;9.95;;;7.72;;
20657;SDS011;10488;50.846;4.078;2023-05-13T06:44:28;10.25;;;7.05;;
20657;SDS011;10488;50.846;4.078;2023-05-13T06:46:54;11.95;;;7.63;;
20657;SDS011;10488;50.846;4.078;2023-05-13T06:49:19;12.93;;;7.10;;
20657;SDS011;10488;50.846;4.078;2023-05-13T06:51:45;11.98;;;6.90;;
20657;SDS011;10488;50.846;4.078;2023-05-13T06:54:12;8.02;;;6.50;;
20657;SDS011;10488;50.846;4.078;2023-05-13T06:56:38;10.55;;;6.55;;
20657;SDS011;10488;50.846;4.078;2023-05-13T06:59:03;16.10;;;6.68;;
20657;SDS011;10488;50.846;4.078;2023-05-13T07:01:29;17.58;;;6.10;;
20657;SDS011;10488;50.846;4.078;2023-05-13T07:03:55;9.65;;;6.28;;
20657;SDS011;10488;50.846;4.078;2023-05-13T07:06:20;6.88;;;5.63;;
20657;SDS011;10488;50.846;4.078;2023-05-13T07:08:46;10.70;;;5.80;;
20657;SDS011;10488;50.846;4.078;2023-05-13T07:11:12;9.27;;;5.50;;
20657;SDS011;10488;50.846;4.078;2023-05-13T07:13:38;8.48;;;6.00;;
20657;SDS011;10488;50.846;4.078;2023-05-13T07:16:03;7.45;;;6.47;;
20657;SDS011;10488;50.846;4.078;2023-05-13T07:18:29;10.27;;;6.65;;
20657;SDS011;10488;50.846;4.078;2023-05-13T07:20:55;10.02;;;6.15;;
20657;SDS011;10488;50.846;4.078;2023-05-13T07:23:21;8.55;;;6.68;;
20657;SDS011;10488;50.846;4.078;2023-05-13T07:25:47;12.90;;;5.70;;
20657;SDS011;10488;50.846;4.078;2023-05-13T07:28:15;9.77;;;5.72;;
20657;SDS011;10488;50.846;4.078;2023-05-13T07:30:43;13.50;;;6.18;;
20657;SDS011;10488;50.846;4.078;2023-05-13T07:33:09;10.07;;;5.90;;
20657;SDS011;10488;50.846;4.078;2023-05-13T07:35:34;8.57;;;6.05;;
20657;SDS011;10488;50.846;4.078;2023-05-13T07:38:01;8.23;;;6.65;;
20657;SDS011;10488;50.846;4.078;2023-05-13T07:40:27;12.60;;;7.07;;
20657;SDS011;10488;50.846;4.078;2023-05-13T07:42:53;9.95;;;6.45;;
20657;SDS011;10488;50.846;4.078;2023-05-13T07:45:19;13.40;;;7.25;;
20657;SDS011;10488;50.846;4.078;2023-05-13T07:47:44;9.98;;;6.70;;
20657;SDS011;10488;50.846;4.078;2023-05-13T07:50:10;8.93;;;6.80;;
20657;SDS011;10488;50.846;4.078;2023-05-13T07:52:36;11.90;;;6.43;;
20657;SDS011;10488;50.846;4.078;2023-05-13T07:55:02;11.93;;;6.53;;
20657;SDS011;10488;50.846;4.078;2023-05-13T07:57:28;10.82;;;6.53;;
20657;SDS011;10488;50.846;4.078;2023-05-13T07:59:54;8.70;;;6.05;;
20657;SDS011;10488;50.846;4.078;2023-05-13T08:02:19;11.55;;;6.05;;
20657;SDS011;10488;50.846;4.078;2023-05-13T08:04:46;8.02;;;6.45;;
20657;SDS011;10488;50.846;4.078;2023-05-13T08:07:11;10.88;;;6.72;;
20657;SDS011;10488;50.846;4.078;2023-05-13T08:09:37;11.93;;;6.47;;
20657;SDS011;10488;50.846;4.078;2023-05-13T08:12:03;10.60;;;6.68;;
20657;SDS011;10488;50.846;4.078;2023-05-13T08:14:28;10.75;;;7.15;;
20657;SDS011;10488;50.846;4.078;2023-05-13T08:16:54;9.70;;;6.03;;
20657;SDS011;10488;50.846;4.078;2023-05-13T08:19:20;9.25;;;7.00;;
20657;SDS011;10488;50.846;4.078;2023-05-13T08:21:46;12.38;;;7.00;;
20657;SDS011;10488;50.846;4.078;2023-05-13T08:24:11;8.48;;;6.53;;
20657;SDS011;10488;50.846;4.078;2023-05-13T08:26:37;13.73;;;7.22;;
20657;SDS011;10488;50.846;4.078;2023-05-13T08:29:03;12.77;;;7.50;;
20657;SDS011;10488;50.846;4.078;2023-05-13T08:31:28;11.23;;;6.85;;
20657;SDS011;10488;50.846;4.078;2023-05-13T08:33:56;11.15;;;7.45;;
20657;SDS011;10488;50.846;4.078;2023-05-13T08:36:21;12.38;;;7.18;;
20657;SDS011;10488;50.846;4.078;2023-05-13T08:38:49;15.18;;;7.38;;
20657;SDS011;10488;50.846;4.078;2023-05-13T08:41:15;11.40;;;7.38;;
20657;SDS011;10488;50.846;4.078;2023-05-13T08:43:41;11.55;;;6.70;;
20657;SDS011;10488;50.846;4.078;2023-05-13T08:46:08;12.20;;;7.60;;
20657;SDS011;10488;50.846;4.078;2023-05-13T08:48:35;9.20;;;7.00;;
20657;SDS011;10488;50.846;4.078;2023-05-13T08:51:05;10.65;;;7.32;;
20657;SDS011;10488;50.846;4.078;2023-05-13T08:53:33;10.35;;;7.15;;
20657;SDS011;10488;50.846;4.078;2023-05-13T08:55:59;16.13;;;7.10;;
20657;SDS011;10488;50.846;4.078;2023-05-13T08:58:25;7.53;;;6.43;;
20657;SDS011;10488;50.846;4.078;2023-05-13T09:00:51;8.73;;;6.28;;
20657;SDS011;10488;50.846;4.078;2023-05-13T09:03:18;9.85;;;7.13;;
20657;SDS011;10488;50.846;4.078;2023-05-13T09:05:45;9.82;;;6.68;;
20657;SDS011;10488;50.846;4.078;2023-05-13T09:08:12;7.45;;;6.03;;
20657;SDS011;10488;50.846;4.078;2023-05-13T09:10:39;13.27;;;7.50;;
20657;SDS011;10488;50.846;4.078;2023-05-13T09:13:05;7.30;;;6.50;;
20657;SDS011;10488;50.846;4.078;2023-05-13T09:15:31;7.85;;;6.53;;
20657;SDS011;10488;50.846;4.078;2023-05-13T09:17:58;11.80;;;6.80;;
20657;SDS011;10488;50.846;4.078;2023-05-13T09:20:25;9.48;;;6.43;;
20657;SDS011;10488;50.846;4.078;2023-05-13T09:22:55;9.77;;;6.75;;
20657;SDS011;10488;50.846;4.078;2023-05-13T09:25:25;11.95;;;5.82;;
20657;SDS011;10488;50.846;4.078;2023-05-13T09:27:52;9.70;;;6.40;;
20657;SDS011;10488;50.846;4.078;2023-05-13T09:30:21;14.13;;;7.38;;
20657;SDS011;10488;50.846;4.078;2023-05-13T09:33:07;8.00;;;6.22;;
20657;SDS011;10488;50.846;4.078;2023-05-13T09:35:38;9.13;;;7.55;;
20657;SDS011;10488;50.846;4.078;2023-05-13T09:38:15;12.82;;;6.93;;
20657;SDS011;10488;50.846;4.078;2023-05-13T09:40:41;12.95;;;7.40;;
20657;SDS011;10488;50.846;4.078;2023-05-13T09:43:14;14.43;;;7.65;;
20657;SDS011;10488;50.846;4.078;2023-05-13T09:45:40;12.57;;;7.90;;
20657;SDS011;10488;50.846;4.078;2023-05-13T09:48:07;8.85;;;7.57;;
20657;SDS011;10488;50.846;4.078;2023-05-13T09:50:32;20.17;;;7.90;;
20657;SDS011;10488;50.846;4.078;2023-05-13T09:53:08;9.45;;;7.25;;
20657;SDS011;10488;50.846;4.078;2023-05-13T09:55:35;9.68;;;8.00;;
20657;SDS011;10488;50.846;4.078;2023-05-13T09:58:02;10.25;;;8.52;;
20657;SDS011;10488;50.846;4.078;2023-05-13T10:00:33;14.00;;;8.77;;
20657;SDS011;10488;50.846;4.078;2023-05-13T10:03:02;9.50;;;8.50;;
20657;SDS011;10488;50.846;4.078;2023-05-13T10:05:29;15.32;;;8.50;;
20657;SDS011;10488;50.846;4.078;2023-05-13T10:07:55;13.18;;;10.40;;
20657;SDS011;10488;50.846;4.078;2023-05-13T10:10:21;16.63;;;11.18;;
20657;SDS011;10488;50.846;4.078;2023-05-13T10:12:47;15.88;;;10.68;;
20657;SDS011;10488;50.846;4.078;2023-05-13T10:15:14;13.30;;;11.48;;
20657;SDS011;10488;50.846;4.078;2023-05-13T10:17:40;14.95;;;10.23;;
20657;SDS011;10488;50.846;4.078;2023-05-13T10:20:06;13.40;;;11.13;;
20657;SDS011;10488;50.846;4.078;2023-05-13T10:22:32;17.80;;;11.68;;
20657;SDS011;10488;50.846;4.078;2023-05-13T10:25:01;16.20;;;10.57;;
20657;SDS011;10488;50.846;4.078;2023-05-13T10:27:29;13.00;;;10.70;;
20657;SDS011;10488;50.846;4.078;2023-05-13T10:29:57;16.30;;;12.05;;
20657;SDS011;10488;50.846;4.078;2023-05-13T10:32:24;12.70;;;11.40;;
20657;SDS011;10488;50.846;4.078;2023-05-13T10:35:13;16.45;;;12.05;;
20657;SDS011;10488;50.846;4.078;2023-05-13T10:43:16;18.25;;;10.48;;
20657;SDS011;10488;50.846;4.078;2023-05-13T10:45:47;13.40;;;10.25;;
20657;SDS011;10488;50.846;4.078;2023-05-13T10:48:15;16.70;;;12.07;;
20657;SDS011;10488;50.846;4.078;2023-05-13T10:50:51;16.52;;;12.95;;
20657;SDS011;10488;50.846;4.078;2023-05-13T10:53:24;17.77;;;12.10;;
20657;SDS011;10488;50.846;4.078;2023-05-13T10:55:55;17.52;;;12.95;;
20657;SDS011;10488;50.846;4.078;2023-05-13T10:58:27;18.60;;;11.02;;
20657;SDS011;10488;50.846;4.078;2023-05-13T11:00:58;17.02;;;10.73;;
20657;SDS011;10488;50.846;4.078;2023-05-13T11:03:57;14.27;;;10.23;;
20657;SDS011;10488;50.846;4.078;2023-05-13T11:06:37;15.68;;;10.50;;
20657;SDS011;10488;50.846;4.078;2023-05-13T11:09:10;18.63;;;11.25;;
20657;SDS011;10488;50.846;4.078;2023-05-13T11:11:37;18.02;;;10.98;;
20657;SDS011;10488;50.846;4.078;2023-05-13T11:14:19;15.30;;;10.95;;
20657;SDS011;10488;50.846;4.078;2023-05-13T11:19:30;13.40;;;11.07;;
20657;SDS011;10488;50.846;4.078;2023-05-13T11:22:09;18.02;;;12.27;;
20657;SDS011;10488;50.846;4.078;2023-05-13T11:24:43;15.93;;;11.30;;
20657;SDS011;10488;50.846;4.078;2023-05-13T11:27:13;16.73;;;12.20;;
20657;SDS011;10488;50.846;4.078;2023-05-13T11:29:46;19.25;;;12.32;;
20657;SDS011;10488;50.846;4.078;2023-05-13T11:32:14;16.15;;;12.70;;
20657;SDS011;10488;50.846;4.078;2023-05-13T11:34:48;15.85;;;12.38;;
20657;SDS011;10488;50.846;4.078;2023-05-13T11:37:15;20.42;;;13.32;;
20657;SDS011;10488;50.846;4.078;2023-05-13T11:39:41;15.68;;;13.85;;
20657;SDS011;10488;50.846;4.078;2023-05-13T11:42:08;16.42;;;12.90;;
20657;SDS011;10488;50.846;4.078;2023-05-13T11:44:34;19.80;;;13.07;;
20657;SDS011;10488;50.846;4.078;2023-05-13T11:47:02;15.57;;;11.98;;
20657;SDS011;10488;50.846;4.078;2023-05-13T11:49:39;14.95;;;12.32;;
20657;SDS011;10488;50.846;4.078;2023-05-13T11:52:09;19.67;;;11.95;;
20657;SDS011;10488;50.846;4.078;2023-05-13T11:59:52;15.75;;;11.55;;
20657;SDS011;10488;50.846;4.078;2023-05-13T12:02:29;16.75;;;12.73;;
20657;SDS011;10488;50.846;4.078;2023-05-13T12:05:04;16.95;;;12.82;;
20657;SDS011;10488;50.846;4.078;2023-05-13T12:07:31;15.80;;;11.98;;
20657;SDS011;10488;50.846;4.078;2023-05-13T12:09:59;15.65;;;12.93;;
20657;SDS011;10488;50.846;4.078;2023-05-13T12:12:26;17.08;;;12.70;;
20657;SDS011;10488;50.846;4.078;2023-05-13T12:14:54;18.23;;;13.05;;
20657;SDS011;10488;50.846;4.078;2023-05-13T12:17:23;17.40;;;12.68;;
20657;SDS011;10488;50.846;4.078;2023-05-13T12:22:31;20.15;;;14.05;;
20657;SDS011;10488;50.846;4.078;2023-05-13T12:24:57;21.92;;;12.82;;
20657;SDS011;10488;50.846;4.078;2023-05-13T12:27:26;19.20;;;13.07;;
20657;SDS011;10488;50.846;4.078;2023-05-13T12:29:55;17.65;;;13.40;;
20657;SDS011;10488;50.846;4.078;2023-05-13T12:32:22;19.25;;;12.65;;
20657;SDS011;10488;50.846;4.078;2023-05-13T12:34:49;16.83;;;13.23;;
20657;SDS011;10488;50.846;4.078;2023-05-13T12:37:15;19.73;;;12.52;;
20657;SDS011;10488;50.846;4.078;2023-05-13T12:39:42;19.98;;;13.32;;
20657;SDS011;10488;50.846;4.078;2023-05-13T12:42:15;16.80;;;13.18;;
20657;SDS011;10488;50.846;4.078;2023-05-13T12:44:45;26.55;;;15.15;;
20657;SDS011;10488;50.846;4.078;2023-05-13T12:47:11;24.63;;;15.48;;
20657;SDS011;10488;50.846;4.078;2023-05-13T12:49:55;27.75;;;15.40;;
20657;SDS011;10488;50.846;4.078;2023-05-13T12:52:24;22.50;;;13.38;;
20657;SDS011;10488;50.846;4.078;2023-05-13T12:54:50;22.02;;;13.52;;
20657;SDS011;10488;50.846;4.078;2023-05-13T12:57:16;24.05;;;14.65;;
20657;SDS011;10488;50.846;4.078;2023-05-13T12:59:44;26.25;;;15.80;;
20657;SDS011;10488;50.846;4.078;2023-05-13T13:02:11;23.27;;;14.45;;
20657;SDS011;10488;50.846;4.078;2023-05-13T13:04:37;32.03;;;15.75;;
20657;SDS011;10488;50.846;4.078;2023-05-13T13:07:03;25.10;;;14.55;;
20657;SDS011;10488;50.846;4.078;2023-05-13T13:09:32;31.52;;;17.63;;
20657;SDS011;10488;50.846;4.078;2023-05-13T13:11:59;34.17;;;18.95;;
20657;SDS011;10488;50.846;4.078;2023-05-13T13:14:25;20.40;;;14.57;;
20657;SDS011;10488;50.846;4.078;2023-05-13T13:16:50;23.33;;;13.50;;
20657;SDS011;10488;50.846;4.078;2023-05-13T13:19:16;20.40;;;14.00;;
20657;SDS011;10488;50.846;4.078;2023-05-13T13:21:42;38.47;;;17.13;;
20657;SDS011;10488;50.846;4.078;2023-05-13T13:24:07;23.48;;;14.98;;
20657;SDS011;10488;50.846;4.078;2023-05-13T13:26:33;96.18;;;27.85;;
20657;SDS011;10488;50.846;4.078;2023-05-13T13:28:59;27.25;;;15.73;;
20657;SDS011;10488;50.846;4.078;2023-05-13T13:31:25;28.13;;;16.33;;
20657;SDS011;10488;50.846;4.078;2023-05-13T13:33:50;25.50;;;14.68;;
20657;SDS011;10488;50.846;4.078;2023-05-13T13:36:17;22.25;;;15.80;;
20657;SDS011;10488;50.846;4.078;2023-05-13T13:38:43;19.92;;;15.65;;
20657;SDS011;10488;50.846;4.078;2023-05-13T13:41:09;26.50;;;15.07;;
20657;SDS011;10488;50.846;4.078;2023-05-13T13:43:35;27.50;;;16.02;;
20657;SDS011;10488;50.846;4.078;2023-05-13T13:46:01;26.00;;;15.02;;
20657;SDS011;10488;50.846;4.078;2023-05-13T13:48:26;30.15;;;14.90;;
20657;SDS011;10488;50.846;4.078;2023-05-13T13:50:52;28.33;;;17.45;;
20657;SDS011;10488;50.846;4.078;2023-05-13T13:53:19;28.63;;;15.15;;
20657;SDS011;10488;50.846;4.078;2023-05-13T13:55:44;22.95;;;15.52;;
20657;SDS011;10488;50.846;4.078;2023-05-13T13:58:10;25.27;;;16.60;;
20657;SDS011;10488;50.846;4.078;2023-05-13T14:00:36;28.45;;;17.42;;
20657;SDS011;10488;50.846;4.078;2023-05-13T14:03:01;29.80;;;17.23;;
20657;SDS011;10488;50.846;4.078;2023-05-13T14:05:27;23.88;;;18.17;;
20657;SDS011;10488;50.846;4.078;2023-05-13T14:07:54;29.15;;;18.20;;
20657;SDS011;10488;50.846;4.078;2023-05-13T14:10:20;26.38;;;17.40;;
20657;SDS011;10488;50.846;4.078;2023-05-13T14:12:46;24.35;;;16.17;;
20657;SDS011;10488;50.846;4.078;2023-05-13T14:15:11;23.63;;;16.60;;
20657;SDS011;10488;50.846;4.078;2023-05-13T14:17:37;29.70;;;18.02;;
20657;SDS011;10488;50.846;4.078;2023-05-13T14:20:03;27.20;;;16.17;;
20657;SDS011;10488;50.846;4.078;2023-05-13T14:22:30;28.48;;;17.52;;
20657;SDS011;10488;50.846;4.078;2023-05-13T14:24:57;29.75;;;17.77;;
20657;SDS011;10488;50.846;4.078;2023-05-13T14:27:23;25.88;;;17.50;;
20657;SDS011;10488;50.846;4.078;2023-05-13T14:29:49;27.38;;;17.13;;
20657;SDS011;10488;50.846;4.078;2023-05-13T14:32:15;32.92;;;17.35;;
20657;SDS011;10488;50.846;4.078;2023-05-13T14:34:40;25.50;;;16.67;;
20657;SDS011;10488;50.846;4.078;2023-05-13T14:37:06;28.85;;;18.33;;
20657;SDS011;10488;50.846;4.078;2023-05-13T14:39:32;29.83;;;16.80;;
20657;SDS011;10488;50.846;4.078;2023-05-13T14:41:58;27.00;;;16.08;;
20657;SDS011;10488;50.846;4.078;2023-05-13T14:44:24;21.17;;;14.90;;
20657;SDS011;10488;50.846;4.078;2023-05-13T14:46:50;29.05;;;16.58;;
20657;SDS011;10488;50.846;4.078;2023-05-13T14:49:16;28.63;;;16.38;;